Aeroporto :
LOGIN :

Iscrizione | Disclaimer

   EN    FR    IT 

 










Sommario :    VFR   VFR Marginale   IFR   IFR Intensivo   IFR Molto Intensivo
Visibilità : 
Base nubi : 
>= 8 km
>= 3000ft
5 / 8 km
1000 / 3000 ft
1500m / 5 km
500 / 1000 ft
800 / 1500m
200 / 500 ft
< 800m
< 200 ft
Simboli :   Temporali  Nebbia  Neve Forte  Precipitazioni Forti  Vento > 20 kt
SIGMETs :   Varie  Temporali  Ghiacco  Turbolenza  Onda orograficha  Ceneri Vulcaniche






- Altitudine del aeroporto : 179 ft
- Codice IATA : HEL


EFHK - Helsinki Vantaa

ULTIMO METAR :
  • 271620Z 23010KT 200V260 CAVOK 18/04 Q1020 NOSIG

METARs OBSOLETI :
  • 271550Z 23012KT 9999 FEW045 18/06 Q1020 NOSIG
  • 271520Z 22014KT 200V260 9999 FEW045 19/08 Q1020 NOSIG
  • 271450Z 22014KT 9999 FEW045CB 19/08 Q1020 BECMG CAVOK
  • 271420Z 22012KT 180V250 CAVOK 20/07 Q1020 NOSIG
  • 271350Z 22013KT CAVOK 20/07 Q1021 NOSIG

TAF TAF EFHK
Valido dal 27 a 15 ore il 28 a 15 ore UTC


271437Z 2715/2815 23012KT CAVOK
BECMG 2718/2720 32006KT
PROB40
TEMPO 2719/2802 FEW040CB



MetMap, La meteo Aeronautica in un colpo d'occhio ! - Copyright ORBIFLY Dicembre 2007 - Disclaimer

ORBIFLY MET'MAP TEAM :

Programmazione e sviluppo : Alexandra Zaïnal
Concezione : Baudouin d'Aumeries
Aiuto per la programmazione : Marc-Olivier Méhu
Supporto tecnico e logistico : Manuel Goepfert
Aiuto per la traduzione : Arnaldo La Scala

Contatto : metmap@orbifly.com




FONTI E CREDITI :

   NOAA